createdAt,value
2018-05-18T00:00:53.541Z,68.20
2018-05-18T00:03:21.086Z,68.00
2018-05-18T00:05:48.682Z,67.70
2018-05-18T00:08:16.220Z,67.80
2018-05-18T00:10:44.633Z,67.50
2018-05-18T00:13:12.556Z,67.50
2018-05-18T00:15:40.909Z,69.00
2018-05-18T00:18:08.465Z,68.90
2018-05-18T00:20:36.039Z,68.60
2018-05-18T00:23:03.622Z,68.40
2018-05-18T00:25:32.199Z,68.50
2018-05-18T00:27:59.751Z,68.50
2018-05-18T00:30:28.111Z,68.70
2018-05-18T00:32:55.658Z,68.70
2018-05-18T00:35:23.207Z,68.80
2018-05-18T00:37:50.783Z,68.30
2018-05-18T00:40:18.353Z,68.00
2018-05-18T00:42:46.256Z,67.70
2018-05-18T00:45:13.868Z,67.60
2018-05-18T00:47:41.438Z,67.20
2018-05-18T00:50:09.039Z,67.30
2018-05-18T00:52:37.364Z,67.00
2018-05-18T00:58:03.872Z,66.60
2018-05-18T01:00:31.449Z,66.90
2018-05-18T01:02:59.110Z,66.90
2018-05-18T01:05:26.655Z,67.20
2018-05-18T01:07:54.980Z,67.60
2018-05-18T01:10:22.506Z,67.60
2018-05-18T01:12:50.258Z,68.10
2018-05-18T01:15:18.587Z,68.50
2018-05-18T01:17:46.116Z,68.50
2018-05-18T01:20:13.721Z,68.00
2018-05-18T01:22:41.300Z,67.90
2018-05-18T01:25:09.652Z,67.80
2018-05-18T01:27:37.543Z,68.40
2018-05-18T01:30:05.855Z,67.80
2018-05-18T01:32:33.387Z,67.90
2018-05-18T01:35:00.951Z,68.10
2018-05-18T01:37:28.542Z,68.00
2018-05-18T01:39:56.072Z,67.70
2018-05-18T01:42:23.657Z,68.00
2018-05-18T01:44:51.226Z,67.90
2018-05-18T01:47:18.910Z,68.20
2018-05-18T01:49:46.476Z,68.60
2018-05-18T01:52:14.055Z,68.70
2018-05-18T01:54:41.632Z,68.20
2018-05-18T01:57:09.960Z,67.70
2018-05-18T01:59:37.487Z,67.70
2018-05-18T02:02:05.065Z,67.50
2018-05-18T02:04:32.644Z,67.50
2018-05-18T02:07:00.217Z,67.00
2018-05-18T02:09:27.765Z,67.70
2018-05-18T02:11:55.656Z,67.60
2018-05-18T02:14:23.192Z,67.00
2018-05-18T02:16:50.779Z,66.80
2018-05-18T02:19:18.371Z,67.20
2018-05-18T02:21:45.925Z,67.40
2018-05-18T02:24:13.544Z,67.30
2018-05-18T02:26:41.118Z,67.20
2018-05-18T02:29:08.716Z,67.30
2018-05-18T02:31:36.842Z,67.30
2018-05-18T02:34:04.421Z,67.50
2018-05-18T02:36:31.982Z,67.70
2018-05-18T02:38:59.568Z,67.40
2018-05-18T02:41:27.125Z,67.00
2018-05-18T02:43:54.707Z,66.70
2018-05-18T02:46:22.295Z,66.70
2018-05-18T02:48:49.833Z,67.10
2018-05-18T02:51:17.412Z,67.40
2018-05-18T02:53:44.951Z,68.20
2018-05-18T02:56:12.591Z,68.00
2018-05-18T02:58:40.339Z,67.50
2018-05-18T03:01:07.914Z,66.80
2018-05-18T03:03:35.485Z,66.60
2018-05-18T03:06:03.078Z,66.50
2018-05-18T03:08:30.669Z,66.50
2018-05-18T03:10:58.226Z,66.50
2018-05-18T03:13:25.976Z,66.50
2018-05-18T03:15:53.527Z,66.50
2018-05-18T03:18:21.106Z,66.40
2018-05-18T03:20:48.675Z,67.80
2018-05-18T03:23:16.263Z,67.70
2018-05-18T03:25:43.861Z,68.30
2018-05-18T03:28:11.423Z,67.40
2018-05-18T03:30:39.437Z,67.40
2018-05-18T03:33:07.022Z,67.90
2018-05-18T03:35:34.599Z,68.50
2018-05-18T03:38:02.195Z,68.40
2018-05-18T03:40:29.774Z,68.50
2018-05-18T03:42:58.107Z,68.20
2018-05-18T03:45:25.647Z,68.10
2018-05-18T03:47:53.232Z,68.20
2018-05-18T03:50:20.776Z,68.70
2018-05-18T03:52:48.352Z,68.80
2018-05-18T03:55:15.936Z,69.00
2018-05-18T03:57:43.512Z,68.80
2018-05-18T04:00:11.146Z,68.30
2018-05-18T04:02:50.361Z,68.70
2018-05-18T04:05:29.665Z,68.40
2018-05-18T04:08:09.740Z,68.30
2018-05-18T04:10:37.359Z,68.00
2018-05-18T04:13:06.111Z,67.90
2018-05-18T04:15:34.475Z,67.80
2018-05-18T04:18:02.047Z,67.80
2018-05-18T04:20:29.628Z,68.10
2018-05-18T04:22:57.196Z,67.80
2018-05-18T04:25:24.767Z,67.50
2018-05-18T04:27:52.368Z,67.40
2018-05-18T04:30:20.070Z,66.90
2018-05-18T04:32:47.574Z,67.60
2018-05-18T04:35:15.181Z,67.60
2018-05-18T04:37:42.720Z,68.00
2018-05-18T04:40:10.261Z,68.30
2018-05-18T04:42:37.842Z,68.20
2018-05-18T04:45:05.418Z,68.30
2018-05-18T04:47:33.009Z,68.40
2018-05-18T04:50:00.547Z,68.20
2018-05-18T04:52:28.107Z,67.50
2018-05-18T04:54:55.671Z,67.70
2018-05-18T04:57:23.208Z,67.60
2018-05-18T04:59:50.815Z,67.70
2018-05-18T05:02:18.678Z,67.50
2018-05-18T05:04:46.247Z,67.50
2018-05-18T05:07:13.827Z,67.40
2018-05-18T05:09:41.465Z,67.90
2018-05-18T05:12:09.059Z,67.60
2018-05-18T05:14:36.660Z,67.70
2018-05-18T05:17:04.244Z,67.30
2018-05-18T05:19:32.565Z,67.20
2018-05-18T05:22:00.102Z,67.20
2018-05-18T05:24:27.701Z,66.40
2018-05-18T05:26:55.260Z,66.10
2018-05-18T05:29:22.821Z,65.70
2018-05-18T05:31:50.392Z,65.90
2018-05-18T05:34:17.986Z,65.50
2018-05-18T05:36:45.549Z,65.50
2018-05-18T05:39:13.282Z,65.60
2018-05-18T05:41:40.822Z,65.40
2018-05-18T05:44:08.387Z,65.00
2018-05-18T05:46:36.027Z,65.80
2018-05-18T05:49:03.558Z,65.70
2018-05-18T05:51:31.118Z,65.50
2018-05-18T05:53:58.713Z,65.00
2018-05-18T05:56:26.256Z,64.60
2018-05-18T05:58:53.798Z,64.40
2018-05-18T06:01:21.413Z,65.00
2018-05-18T06:03:48.945Z,65.10
2018-05-18T06:06:16.696Z,63.00
2018-05-18T06:08:44.266Z,63.80
2018-05-18T06:11:11.902Z,63.80
2018-05-18T06:13:39.472Z,63.70
2018-05-18T06:16:07.057Z,63.40
2018-05-18T06:18:34.599Z,63.30
2018-05-18T06:21:02.323Z,62.90
2018-05-18T06:23:30.651Z,62.80
2018-05-18T06:25:58.213Z,62.80
2018-05-18T06:28:26.141Z,62.80
2018-05-18T06:30:53.675Z,62.90
2018-05-18T06:33:22.020Z,62.20
2018-05-18T06:35:49.584Z,62.20
2018-05-18T06:38:17.601Z,62.20
2018-05-18T06:40:45.957Z,61.90
2018-05-18T06:43:13.540Z,61.80
2018-05-18T06:45:41.127Z,61.00
2018-05-18T06:48:08.680Z,61.10
2018-05-18T06:50:36.281Z,61.10
2018-05-18T06:53:04.642Z,59.40
2018-05-18T06:55:32.458Z,59.40
2018-05-18T06:58:00.032Z,58.70
2018-05-18T07:00:27.826Z,58.40
2018-05-18T07:02:55.382Z,57.40
2018-05-18T07:05:23.012Z,57.10
2018-05-18T07:07:51.344Z,55.90
2018-05-18T07:10:19.620Z,55.80
2018-05-18T07:12:47.160Z,55.40
2018-05-18T07:15:14.719Z,54.90
2018-05-18T07:17:42.297Z,54.90
2018-05-18T07:20:09.864Z,55.40
2018-05-18T07:22:37.626Z,55.30
2018-05-18T07:25:05.181Z,55.20
2018-05-18T07:27:32.830Z,55.60
2018-05-18T07:30:00.453Z,54.60
2018-05-18T07:32:28.012Z,54.90
2018-05-18T07:34:55.585Z,54.80
2018-05-18T07:37:23.949Z,54.60
2018-05-18T07:39:52.396Z,54.30
2018-05-18T07:42:24.944Z,54.30
2018-05-18T07:44:52.514Z,54.20
2018-05-18T07:47:20.582Z,53.90
2018-05-18T07:49:48.548Z,53.80
2018-05-18T07:52:16.106Z,53.70
2018-05-18T07:54:43.732Z,53.40
2018-05-18T07:57:11.448Z,53.60
2018-05-18T07:59:39.364Z,53.50
2018-05-18T08:02:07.685Z,53.30
2018-05-18T08:04:35.246Z,53.20
2018-05-18T08:07:03.174Z,53.00
2018-05-18T08:09:30.779Z,52.70
2018-05-18T08:11:58.328Z,52.40
2018-05-18T08:14:26.020Z,52.60
2018-05-18T08:16:53.587Z,52.60
2018-05-18T08:19:21.252Z,52.70
2018-05-18T08:21:48.861Z,52.20
2018-05-18T08:24:16.468Z,52.30
2018-05-18T08:26:44.072Z,52.30
2018-05-18T08:32:12.218Z,52.50
2018-05-18T08:34:39.868Z,52.40
2018-05-18T08:37:07.487Z,52.40
2018-05-18T08:39:35.827Z,52.50
2018-05-18T08:42:03.426Z,52.50
2018-05-18T08:44:31.126Z,52.10
2018-05-18T08:46:58.599Z,52.30
2018-05-18T08:49:26.271Z,52.10
2018-05-18T08:51:54.004Z,52.40
2018-05-18T08:54:21.713Z,52.30
2018-05-18T08:56:49.300Z,52.30
2018-05-18T08:59:16.899Z,52.20
2018-05-18T09:01:44.514Z,52.30
2018-05-18T09:04:12.596Z,52.10
2018-05-18T09:06:40.220Z,52.10
2018-05-18T09:09:07.762Z,52.40
2018-05-18T09:11:35.339Z,52.50
2018-05-18T09:14:02.888Z,52.10
2018-05-18T09:16:30.653Z,52.60
2018-05-18T09:18:58.295Z,52.20
2018-05-18T09:21:26.023Z,51.90
2018-05-18T09:23:53.645Z,52.10
2018-05-18T09:26:21.350Z,52.60
2018-05-18T09:28:48.909Z,51.90
2018-05-18T09:31:16.521Z,52.60
2018-05-18T09:33:44.049Z,52.80
2018-05-18T09:36:11.675Z,53.20
2018-05-18T09:38:39.332Z,53.10
2018-05-18T09:41:07.181Z,53.40
2018-05-18T09:43:35.072Z,52.80
2018-05-18T09:46:02.704Z,52.60
2018-05-18T09:48:30.753Z,52.50
2018-05-18T09:50:58.428Z,52.50
2018-05-18T09:53:26.040Z,52.50
2018-05-18T09:55:53.618Z,52.50
2018-05-18T09:58:21.211Z,52.30
2018-05-18T10:00:48.917Z,51.70
2018-05-18T10:03:16.615Z,51.70
2018-05-18T10:05:44.325Z,51.00
2018-05-18T10:08:11.916Z,51.00
2018-05-18T10:10:40.142Z,50.90
2018-05-18T10:13:07.788Z,50.60
2018-05-18T10:15:36.284Z,51.50
2018-05-18T10:18:04.920Z,51.80
2018-05-18T10:20:32.498Z,49.80
2018-05-18T10:23:00.098Z,50.30
2018-05-18T10:25:27.756Z,51.10
2018-05-18T10:27:55.724Z,50.50
2018-05-18T10:30:32.128Z,50.00
2018-05-18T10:32:59.740Z,48.50
2018-05-18T10:35:27.691Z,50.30
2018-05-18T10:37:55.248Z,49.50
2018-05-18T10:40:22.833Z,49.00
2018-05-18T10:42:55.608Z,48.80
2018-05-18T10:45:23.222Z,48.50
2018-05-18T10:47:50.777Z,46.80
2018-05-18T10:50:18.909Z,48.80
2018-05-18T10:52:46.540Z,48.70
2018-05-18T10:55:14.206Z,48.80
2018-05-18T10:57:41.820Z,48.80
2018-05-18T11:00:09.537Z,49.50
2018-05-18T11:02:37.262Z,49.00
2018-05-18T11:05:05.637Z,48.50
2018-05-18T11:07:33.983Z,47.00
2018-05-18T11:10:01.605Z,47.00
2018-05-18T11:12:29.550Z,48.30
2018-05-18T11:14:57.259Z,48.20
2018-05-18T11:17:24.896Z,48.30
2018-05-18T11:19:52.424Z,48.40
2018-05-18T11:22:20.244Z,48.30
2018-05-18T11:24:47.789Z,49.10
2018-05-18T11:27:15.398Z,49.10
2018-05-18T11:29:42.992Z,48.20
2018-05-18T11:32:10.588Z,48.20
2018-05-18T11:34:38.202Z,48.50
2018-05-18T11:37:06.509Z,49.40
2018-05-18T11:39:34.112Z,49.30
2018-05-18T11:42:01.803Z,49.20
2018-05-18T11:44:29.376Z,48.40
2018-05-18T11:46:56.902Z,47.30
2018-05-18T11:49:24.719Z,48.10
2018-05-18T11:51:52.291Z,47.20
2018-05-18T11:54:19.900Z,47.80
2018-05-18T11:56:47.439Z,47.40
2018-05-18T11:59:15.020Z,47.60
2018-05-18T12:01:42.990Z,48.40
2018-05-18T12:04:11.337Z,48.80
2018-05-18T12:06:39.508Z,48.80
2018-05-18T12:09:07.105Z,47.70
2018-05-18T12:11:34.651Z,48.60
2018-05-18T12:14:03.292Z,49.40
2018-05-18T12:16:31.262Z,49.40
2018-05-18T12:18:58.999Z,48.70
2018-05-18T12:21:26.621Z,48.40
2018-05-18T12:23:54.207Z,49.50
2018-05-18T12:26:21.765Z,49.20
2018-05-18T12:28:49.407Z,49.00
2018-05-18T12:31:17.240Z,48.30
2018-05-18T12:33:44.812Z,47.50
2018-05-18T12:36:12.484Z,48.70
2018-05-18T12:38:40.110Z,47.90
2018-05-18T12:41:07.766Z,46.30
2018-05-18T12:43:35.551Z,48.20
2018-05-18T12:46:03.147Z,49.60
2018-05-18T12:48:30.736Z,47.20
2018-05-18T12:50:58.334Z,48.20
2018-05-18T12:53:25.877Z,47.30
2018-05-18T12:55:53.472Z,45.90
2018-05-18T12:58:21.071Z,46.10
2018-05-18T13:00:48.677Z,46.00
2018-05-18T13:03:16.479Z,47.70
2018-05-18T13:05:44.805Z,47.20
2018-05-18T13:08:12.472Z,47.20
2018-05-18T13:10:40.043Z,48.20
2018-05-18T13:13:07.626Z,47.60
2018-05-18T13:15:35.165Z,47.10
2018-05-18T13:18:02.747Z,45.20
2018-05-18T13:20:30.285Z,45.40
2018-05-18T13:22:57.860Z,46.50
2018-05-18T13:25:26.265Z,46.50
2018-05-18T13:27:53.853Z,45.40
2018-05-18T13:30:21.386Z,47.40
2018-05-18T13:32:49.025Z,45.30
2018-05-18T13:35:16.586Z,45.90
2018-05-18T13:37:44.199Z,45.90
2018-05-18T13:40:11.894Z,47.20
2018-05-18T13:42:39.485Z,48.50
2018-05-18T13:45:07.984Z,47.50
2018-05-18T13:47:35.537Z,47.40
2018-05-18T13:50:03.218Z,46.90
2018-05-18T13:52:30.869Z,46.50
2018-05-18T13:54:59.190Z,46.00
2018-05-18T13:57:26.807Z,46.00
2018-05-18T13:59:54.430Z,46.10
2018-05-18T14:02:22.025Z,46.80
2018-05-18T14:04:49.999Z,46.90
2018-05-18T14:07:17.665Z,47.50
2018-05-18T14:09:45.298Z,46.50
2018-05-18T14:12:13.657Z,45.20
2018-05-18T14:14:41.294Z,45.10
2018-05-18T14:17:08.851Z,46.60
2018-05-18T14:19:36.421Z,46.80
2018-05-18T14:22:04.000Z,45.60
2018-05-18T14:24:31.594Z,46.80
2018-05-18T14:26:59.264Z,47.60
2018-05-18T14:29:27.578Z,46.70
2018-05-18T14:31:55.544Z,46.80
2018-05-18T14:34:23.131Z,46.50
2018-05-18T14:36:50.734Z,46.80
2018-05-18T14:39:18.345Z,46.50
2018-05-18T14:41:45.880Z,45.70
2018-05-18T14:44:13.809Z,46.80
2018-05-18T14:46:41.383Z,45.90
2018-05-18T14:49:08.985Z,44.90
2018-05-18T14:51:36.548Z,44.60
2018-05-18T14:54:04.090Z,46.90
2018-05-18T14:56:31.665Z,43.40
2018-05-18T14:59:00.025Z,43.50
2018-05-18T15:01:27.603Z,44.90
2018-05-18T15:03:55.199Z,44.40
2018-05-18T15:06:23.627Z,44.30
2018-05-18T15:08:51.231Z,44.40
2018-05-18T15:11:18.818Z,45.60
2018-05-18T15:13:46.390Z,46.30
2018-05-18T15:16:14.012Z,46.90
2018-05-18T15:18:41.614Z,46.70
2018-05-18T15:21:09.243Z,46.50
2018-05-18T15:23:36.853Z,47.10
2018-05-18T15:26:04.468Z,47.60
2018-05-18T15:28:32.082Z,47.40
2018-05-18T15:31:00.634Z,46.80
2018-05-18T15:33:28.220Z,48.00
2018-05-18T15:35:55.793Z,48.70
2018-05-18T15:38:23.387Z,47.70
2018-05-18T15:40:50.957Z,47.80
2018-05-18T15:43:19.282Z,47.80
2018-05-18T15:45:46.975Z,47.80
2018-05-18T15:48:14.547Z,48.20
2018-05-18T15:50:42.150Z,48.20
2018-05-18T15:53:09.726Z,47.20
2018-05-18T15:55:37.291Z,49.10
2018-05-18T15:58:04.899Z,48.60
2018-05-18T16:00:32.468Z,48.60
2018-05-18T16:03:00.900Z,48.20
2018-05-18T16:05:28.444Z,48.20
2018-05-18T16:07:56.071Z,47.30
2018-05-18T16:10:24.421Z,48.40
2018-05-18T16:12:52.035Z,48.40
2018-05-18T16:15:19.595Z,47.70
2018-05-18T16:17:47.201Z,48.70
2018-05-18T16:20:14.842Z,47.60
2018-05-18T16:22:42.396Z,46.80
2018-05-18T16:25:09.974Z,48.50
2018-05-18T16:27:37.916Z,47.90
2018-05-18T16:30:05.749Z,49.00
2018-05-18T16:32:33.315Z,48.30
2018-05-18T16:35:00.900Z,48.50
2018-05-18T16:37:28.656Z,48.10
2018-05-18T16:39:56.095Z,48.80
2018-05-18T16:42:23.698Z,47.80
2018-05-18T16:44:51.307Z,48.80
2018-05-18T16:47:19.680Z,47.70
2018-05-18T16:49:48.003Z,48.00
2018-05-18T16:52:15.655Z,48.00
2018-05-18T16:54:43.192Z,48.90
2018-05-18T16:57:10.736Z,46.90
2018-05-18T16:59:38.608Z,48.50
2018-05-18T17:02:06.975Z,48.00
2018-05-18T17:04:35.424Z,46.80
2018-05-18T17:07:03.760Z,47.10
2018-05-18T17:09:31.453Z,47.10
2018-05-18T17:11:58.993Z,48.10
2018-05-18T17:14:26.622Z,48.40
2018-05-18T17:16:54.138Z,46.90
2018-05-18T17:19:21.720Z,46.20
2018-05-18T17:21:49.324Z,45.70
2018-05-18T17:24:17.688Z,46.00
2018-05-18T17:26:46.114Z,46.50
2018-05-18T17:29:13.756Z,46.50
2018-05-18T17:31:41.308Z,45.40
2018-05-18T17:34:08.884Z,46.20
2018-05-18T17:36:36.513Z,45.80
2018-05-18T17:39:05.776Z,45.30
2018-05-18T17:41:33.691Z,45.30
2018-05-18T17:44:01.265Z,46.30
2018-05-18T17:46:28.825Z,46.70
2018-05-18T17:48:56.417Z,44.40
2018-05-18T17:51:24.068Z,45.00
2018-05-18T17:53:51.624Z,45.50
2018-05-18T17:56:19.238Z,44.10
2018-05-18T17:58:47.599Z,46.50
2018-05-18T18:01:15.249Z,46.40
2018-05-18T18:03:42.841Z,44.80
2018-05-18T18:06:11.239Z,45.60
2018-05-18T18:08:38.829Z,45.60
2018-05-18T18:11:06.408Z,45.00
2018-05-18T18:13:33.966Z,45.90
2018-05-18T18:16:01.872Z,45.20
2018-05-18T18:18:29.445Z,45.60
2018-05-18T18:20:57.049Z,45.60
2018-05-18T18:23:24.636Z,46.70
2018-05-18T18:25:52.247Z,47.60
2018-05-18T18:28:19.813Z,48.00
2018-05-18T18:30:47.484Z,48.80
2018-05-18T18:33:15.041Z,49.00
2018-05-18T18:35:42.617Z,47.70
2018-05-18T18:38:10.160Z,48.50
2018-05-18T18:40:37.776Z,49.50
2018-05-18T18:43:06.178Z,49.40
2018-05-18T18:45:33.775Z,49.50
2018-05-18T18:48:01.454Z,49.80
2018-05-18T18:50:29.052Z,50.10
2018-05-18T18:52:56.648Z,49.00
2018-05-18T18:55:24.265Z,48.70
2018-05-18T18:57:51.824Z,48.80
2018-05-18T19:00:19.553Z,49.50
2018-05-18T19:02:47.126Z,50.10
2018-05-18T19:05:14.849Z,50.70
2018-05-18T19:07:42.422Z,50.60
2018-05-18T19:10:09.966Z,50.80
2018-05-18T19:12:37.542Z,51.10
2018-05-18T19:15:05.077Z,50.50
2018-05-18T19:17:32.748Z,51.30
2018-05-18T19:20:00.330Z,51.80
2018-05-18T19:22:27.872Z,52.00
2018-05-18T19:24:55.446Z,52.50
2018-05-18T19:27:23.006Z,52.50
2018-05-18T19:29:51.397Z,53.10
2018-05-18T19:32:19.420Z,52.90
2018-05-18T19:34:47.034Z,53.20
2018-05-18T19:37:14.608Z,53.30
2018-05-18T19:39:42.226Z,53.50
2018-05-18T19:42:09.805Z,53.60
2018-05-18T19:44:37.326Z,54.00
2018-05-18T19:47:04.988Z,54.10
2018-05-18T19:49:32.613Z,54.20
2018-05-18T19:52:00.252Z,54.50
2018-05-18T19:54:27.811Z,54.80
2018-05-18T19:56:55.397Z,54.70
2018-05-18T19:59:23.778Z,55.00
2018-05-18T20:01:52.212Z,55.10
2018-05-18T20:04:19.896Z,55.10
2018-05-18T20:06:47.436Z,54.90
2018-05-18T20:09:15.009Z,55.20
2018-05-18T20:11:42.611Z,55.50
2018-05-18T20:14:11.000Z,56.20
2018-05-18T20:16:38.570Z,56.20
2018-05-18T20:19:06.160Z,56.10
2018-05-18T20:21:33.695Z,55.90
2018-05-18T20:24:01.279Z,56.10
2018-05-18T20:26:28.860Z,56.10
2018-05-18T20:28:56.400Z,55.90
2018-05-18T20:31:23.981Z,56.10
2018-05-18T20:33:51.620Z,56.00
2018-05-18T20:36:19.209Z,56.30
2018-05-18T20:38:46.846Z,56.50
2018-05-18T20:41:14.463Z,56.80
2018-05-18T20:43:42.080Z,56.70
2018-05-18T20:46:09.630Z,56.60
2018-05-18T20:48:37.205Z,56.80
2018-05-18T20:51:04.735Z,56.80
2018-05-18T20:53:32.357Z,56.90
2018-05-18T20:55:59.937Z,56.80
2018-05-18T20:58:27.557Z,56.60
2018-05-18T21:00:55.110Z,56.50
2018-05-18T21:03:22.928Z,56.50
2018-05-18T21:05:50.501Z,56.80
2018-05-18T21:08:18.110Z,57.10
2018-05-18T21:10:45.702Z,57.20
2018-05-18T21:13:13.352Z,57.00
2018-05-18T21:15:41.694Z,57.50
2018-05-18T21:18:09.272Z,57.50
2018-05-18T21:20:36.980Z,57.60
2018-05-18T21:23:04.623Z,57.60
2018-05-18T21:25:32.307Z,57.40
2018-05-18T21:27:59.821Z,57.60
2018-05-18T21:30:27.531Z,57.70
2018-05-18T21:32:54.991Z,57.50
2018-05-18T21:35:23.506Z,57.50
2018-05-18T21:37:51.335Z,57.50
2018-05-18T21:40:18.896Z,57.70
2018-05-18T21:42:46.540Z,57.70
2018-05-18T21:45:14.085Z,57.90
2018-05-18T21:47:41.724Z,58.00
2018-05-18T21:50:09.363Z,58.00
2018-05-18T21:52:37.773Z,58.20
2018-05-18T21:55:05.345Z,58.20
2018-05-18T21:57:33.705Z,58.30
2018-05-18T22:00:01.508Z,58.20
2018-05-18T22:02:29.896Z,58.60
2018-05-18T22:04:57.453Z,58.50
2018-05-18T22:07:25.075Z,58.90
2018-05-18T22:09:52.656Z,59.10
2018-05-18T22:12:20.474Z,58.90
2018-05-18T22:14:48.038Z,59.10
2018-05-18T22:17:15.596Z,59.10
2018-05-18T22:19:43.175Z,58.70
2018-05-18T22:22:10.818Z,59.10
2018-05-18T22:24:38.475Z,59.00
2018-05-18T22:27:06.064Z,59.20
2018-05-18T22:29:33.653Z,59.00
2018-05-18T22:32:01.209Z,58.70
2018-05-18T22:34:28.808Z,58.90
2018-05-18T22:36:57.148Z,59.40
2018-05-18T22:39:25.198Z,59.40
2018-05-18T22:41:52.838Z,59.30
2018-05-18T22:44:20.396Z,59.40
2018-05-18T22:46:48.005Z,59.30
2018-05-18T22:49:15.594Z,59.70
2018-05-18T22:51:43.134Z,59.90
2018-05-18T22:54:10.691Z,59.70
2018-05-18T22:56:38.252Z,59.70
2018-05-18T22:59:05.855Z,59.80
2018-05-18T23:01:33.436Z,59.40
2018-05-18T23:04:00.981Z,59.60
2018-05-18T23:06:28.519Z,59.60
2018-05-18T23:08:56.112Z,59.60
2018-05-18T23:11:23.654Z,59.80
2018-05-18T23:13:51.196Z,59.90
2018-05-18T23:16:18.777Z,60.10
2018-05-18T23:18:46.360Z,60.00
2018-05-18T23:21:13.901Z,59.90
2018-05-18T23:23:41.788Z,59.90
2018-05-18T23:26:09.382Z,59.70
2018-05-18T23:28:36.940Z,59.50
2018-05-18T23:31:04.517Z,60.50
2018-05-18T23:33:32.094Z,60.10
2018-05-18T23:35:59.860Z,59.80
2018-05-18T23:38:28.593Z,59.80
2018-05-18T23:40:56.452Z,59.70
2018-05-18T23:43:24.082Z,59.80
2018-05-18T23:45:51.876Z,60.00
2018-05-18T23:48:19.463Z,59.80
2018-05-18T23:50:46.995Z,59.60
2018-05-18T23:53:14.560Z,59.20
2018-05-18T23:55:42.212Z,59.70
2018-05-18T23:58:10.321Z,60.00
